Time;durP1;ratioP1;P1;durP2;ratioP2;P2;SDS_P1;SDS_P2;PMS_P1;PMS_P2;Temp;Humidity;BMP_temperature;BMP_pressure;BME280_temperature;BME280_humidity;BME280_pressure;Samples;Min_cycle;Max_cycle;Signal;HPM_P1;HPM_P2
2022/11/30 00:00:02;;;;;;;35.42;22.40;;;6.70;99.90;;;;;;5032521;28;20129;-44
2022/11/30 00:02:29;;;;;;;35.95;22.63;;;6.70;99.90;;;;;;5032819;28;20050;-45
2022/11/30 00:04:54;;;;;;;36.47;23.00;;;6.50;99.90;;;;;;5033143;28;20223;-48
2022/11/30 00:07:20;;;;;;;33.97;21.05;;;6.50;99.90;;;;;;5032814;28;20116;-48
2022/11/30 00:09:46;;;;;;;31.10;20.88;;;6.40;99.90;;;;;;5032361;28;20069;-44
2022/11/30 00:12:11;;;;;;;33.83;19.88;;;6.40;99.90;;;;;;5032509;28;20065;-44
2022/11/30 00:14:37;;;;;;;31.20;19.27;;;6.30;99.90;;;;;;5032500;28;20056;-47
2022/11/30 00:17:02;;;;;;;31.60;20.05;;;6.40;99.90;;;;;;5032560;28;20045;-46
2022/11/30 00:19:28;;;;;;;30.05;19.33;;;6.30;99.90;;;;;;5032164;28;20528;-44
2022/11/30 00:21:54;;;;;;;33.00;20.15;;;6.10;99.90;;;;;;5032260;28;20524;-45
2022/11/30 00:24:19;;;;;;;31.38;20.23;;;6.20;99.90;;;;;;5032418;28;20045;-43
2022/11/30 00:26:45;;;;;;;33.40;20.95;;;6.00;99.90;;;;;;5032272;28;20040;-44
2022/11/30 00:29:11;;;;;;;34.83;20.20;;;5.90;99.90;;;;;;5014668;28;20441;-43
2022/11/30 00:31:37;;;;;;;40.17;21.30;;;5.80;99.90;;;;;;5031921;28;20371;-43
2022/11/30 00:34:03;;;;;;;39.13;19.05;;;5.60;99.90;;;;;;5032294;28;20045;-43
2022/11/30 00:36:29;;;;;;;126.93;17.75;;;5.50;99.90;;;;;;5014492;28;20110;-44
2022/11/30 00:38:54;;;;;;;135.38;14.23;;;5.50;99.90;;;;;;5032182;28;20048;-44
2022/11/30 00:41:20;;;;;;;71.88;10.80;;;5.40;99.90;;;;;;4997899;28;20065;-44
2022/11/30 00:43:46;;;;;;;74.75;10.20;;;5.60;99.90;;;;;;5031904;28;20107;-44
2022/11/30 00:46:12;;;;;;;78.15;11.05;;;5.40;99.90;;;;;;5032093;28;20037;-44
2022/11/30 00:48:38;;;;;;;123.72;11.38;;;5.20;99.90;;;;;;5031980;28;20553;-45
2022/11/30 00:51:06;;;;;;;144.90;12.23;;;5.10;99.90;;;;;;4997866;28;20119;-44
2022/11/30 00:53:32;;;;;;;111.25;10.35;;;5.00;99.90;;;;;;5031928;28;20041;-44
2022/11/30 00:55:57;;;;;;;115.75;11.90;;;5.10;99.90;;;;;;5033214;28;20455;-47
2022/11/30 00:58:23;;;;;;;104.60;11.93;;;5.00;99.90;;;;;;5051557;28;20049;-43
2022/11/30 01:00:49;;;;;;;43.90;11.00;;;5.30;99.90;;;;;;5051763;28;20048;-43
2022/11/30 01:03:15;;;;;;;34.65;11.35;;;5.10;99.90;;;;;;5033838;28;20405;-44
2022/11/30 01:05:42;;;;;;;44.13;10.95;;;5.20;99.90;;;;;;5033732;28;20045;-44
2022/11/30 01:08:09;;;;;;;38.65;11.75;;;5.40;99.90;;;;;;5051647;28;20119;-43
2022/11/30 01:10:36;;;;;;;24.90;11.63;;;5.40;99.90;;;;;;5051503;28;20045;-44
2022/11/30 01:13:02;;;;;;;21.90;11.68;;;5.50;99.90;;;;;;5051434;28;20069;-45
2022/11/30 01:15:29;;;;;;;27.48;13.15;;;5.40;99.90;;;;;;5051689;28;20105;-46
2022/11/30 01:17:54;;;;;;;22.55;11.85;;;5.70;99.90;;;;;;5051652;28;20044;-44
2022/11/30 01:20:20;;;;;;;22.27;12.77;;;5.80;99.90;;;;;;5051357;28;20060;-46
2022/11/30 01:22:46;;;;;;;20.23;12.27;;;6.00;99.90;;;;;;5051522;28;20060;-45
2022/11/30 01:25:12;;;;;;;26.77;14.40;;;6.00;99.90;;;;;;5051467;28;20111;-45
2022/11/30 01:27:37;;;;;;;21.50;12.70;;;5.90;99.90;;;;;;5033440;28;20411;-43
2022/11/30 01:30:04;;;;;;;22.65;12.27;;;5.70;99.90;;;;;;5033461;28;20056;-44
2022/11/30 01:32:29;;;;;;;21.50;12.00;;;5.60;99.90;;;;;;5051251;28;20036;-44
2022/11/30 01:34:55;;;;;;;22.73;13.25;;;5.80;99.90;;;;;;5051244;28;20091;-44
2022/11/30 01:37:21;;;;;;;26.67;14.48;;;5.70;99.90;;;;;;5051270;28;20116;-45
2022/11/30 01:39:46;;;;;;;26.50;15.63;;;5.70;99.90;;;;;;5051421;28;20124;-44
2022/11/30 01:42:16;;;;;;;25.63;14.40;;;5.80;99.90;;;;;;5033354;28;20127;-44
2022/11/30 01:44:57;;;;;;;25.50;14.40;;;5.90;99.90;;;;;;5054288;28;20036;-44
2022/11/30 01:47:39;;;;;;;25.30;14.02;;;5.70;99.90;;;;;;5055305;28;20033;-44
2022/11/30 01:50:09;;;;;;;26.83;15.02;;;5.90;99.90;;;;;;5055121;28;20037;-47
2022/11/30 01:52:45;;;;;;;26.83;14.88;;;5.60;99.90;;;;;;5037389;28;20044;-44
2022/11/30 01:55:43;;;;;;;30.35;16.23;;;5.90;99.90;;;;;;5037271;28;20037;-45
2022/11/30 01:58:27;;;;;;;28.88;15.40;;;5.70;99.90;;;;;;5031478;28;20088;-44
2022/11/30 02:00:52;;;;;;;32.17;15.15;;;5.80;99.90;;;;;;5035006;28;20033;-48
2022/11/30 02:03:37;;;;;;;28.35;16.33;;;5.90;99.90;;;;;;5035104;28;20037;-45
2022/11/30 02:06:03;;;;;;;31.75;16.55;;;6.00;99.90;;;;;;5017438;28;20069;-46
2022/11/30 02:08:30;;;;;;;31.05;17.52;;;5.90;99.90;;;;;;5034940;28;20328;-47
2022/11/30 02:11:01;;;;;;;33.65;18.17;;;5.90;99.90;;;;;;5035050;28;20037;-46
2022/11/30 02:13:51;;;;;;;31.23;17.40;;;6.00;99.90;;;;;;5034652;28;20116;-47
2022/11/30 02:16:54;;;;;;;31.90;16.75;;;5.90;99.90;;;;;;5034813;28;20759;-44
2022/11/30 02:19:22;;;;;;;;;;;6.20;99.90;;;;;;5035008;28;20064;-45
2022/11/30 02:22:05;;;;;;;31.75;15.60;;;6.30;99.90;;;;;;5034600;28;19990;-45
2022/11/30 02:24:55;;;;;;;37.00;17.88;;;6.40;99.90;;;;;;5034641;28;20048;-46
2022/11/30 02:27:49;;;;;;;30.85;16.27;;;6.20;99.90;;;;;;5034430;28;20064;-45
2022/11/30 02:30:19;;;;;;;31.25;17.10;;;6.20;99.90;;;;;;5034548;28;20121;-45
2022/11/30 02:33:15;;;;;;;33.35;17.25;;;6.30;99.90;;;;;;5034460;28;20072;-46
2022/11/30 02:35:45;;;;;;;33.80;17.52;;;6.60;99.90;;;;;;5010468;28;20265;-45
2022/11/30 02:38:12;;;;;;;33.38;18.23;;;6.50;99.90;;;;;;5034102;28;20048;-47
2022/11/30 02:40:37;;;;;;;36.80;19.70;;;6.50;99.90;;;;;;5034335;28;20049;-45
2022/11/30 02:43:05;;;;;;;36.83;20.92;;;6.50;99.90;;;;;;5033993;28;20059;-47
2022/11/30 02:45:41;;;;;;;35.20;17.80;;;6.70;99.90;;;;;;5016359;28;20160;-46
2022/11/30 02:48:12;;;;;;;33.10;18.35;;;6.40;99.90;;;;;;5034010;28;20041;-42
2022/11/30 02:50:41;;;;;;;32.30;18.02;;;6.70;99.90;;;;;;5033964;28;20044;-42
2022/11/30 02:53:08;;;;;;;31.13;18.45;;;6.60;99.90;;;;;;5034095;28;20041;-43
2022/11/30 02:55:34;;;;;;;33.20;18.63;;;6.60;99.90;;;;;;5033632;28;20036;-44
2022/11/30 02:58:00;;;;;;;38.55;21.05;;;6.70;99.90;;;;;;5052088;28;20036;-46
2022/11/30 03:00:25;;;;;;;37.47;19.70;;;6.80;99.90;;;;;;5053630;28;20076;-45
2022/11/30 03:02:51;;;;;;;37.33;20.40;;;6.60;99.90;;;;;;5053622;28;20080;-44
2022/11/30 03:05:17;;;;;;;38.97;21.65;;;6.50;99.90;;;;;;5053586;28;20037;-46
2022/11/30 03:07:42;;;;;;;41.28;20.05;;;6.60;99.90;;;;;;5053749;28;20394;-44
2022/11/30 03:10:09;;;;;;;36.78;19.73;;;6.70;99.90;;;;;;5053517;28;20049;-45
2022/11/30 03:12:34;;;;;;;41.20;20.63;;;6.80;99.90;;;;;;5035691;28;20083;-47
2022/11/30 03:15:00;;;;;;;39.38;20.08;;;6.60;99.90;;;;;;5053545;28;20036;-46
2022/11/30 03:17:26;;;;;;;36.90;20.17;;;6.90;99.90;;;;;;5053441;28;20442;-45
2022/11/30 03:19:52;;;;;;;38.70;20.23;;;6.90;99.90;;;;;;5053007;28;20132;-47
2022/11/30 03:22:17;;;;;;;36.70;20.35;;;6.90;99.90;;;;;;5035320;28;20052;-47
2022/11/30 03:24:43;;;;;;;39.53;21.52;;;6.90;99.90;;;;;;5035277;28;20041;-45
2022/11/30 03:27:09;;;;;;;37.20;19.08;;;6.80;99.90;;;;;;5053418;28;20095;-45
2022/11/30 03:29:34;;;;;;;38.95;21.35;;;6.70;99.90;;;;;;5053141;28;20087;-43
2022/11/30 03:32:00;;;;;;;41.08;23.23;;;7.00;99.90;;;;;;5053208;28;20155;-45
2022/11/30 03:34:27;;;;;;;44.40;22.30;;;7.00;99.90;;;;;;5053249;28;20080;-46
2022/11/30 03:36:53;;;;;;;43.20;23.40;;;6.70;99.90;;;;;;5053112;28;20049;-45
2022/11/30 03:39:19;;;;;;;44.03;23.60;;;7.00;99.90;;;;;;5053116;28;20037;-44
2022/11/30 03:41:44;;;;;;;42.90;22.40;;;6.90;99.90;;;;;;5052968;28;20049;-44
2022/11/30 03:44:10;;;;;;;45.42;22.77;;;6.70;99.90;;;;;;5052962;28;20186;-45
2022/11/30 03:46:36;;;;;;;40.90;22.20;;;6.80;99.90;;;;;;5053164;28;20041;-44
2022/11/30 03:49:02;;;;;;;42.33;22.80;;;6.90;99.90;;;;;;5034968;28;20205;-44
2022/11/30 03:51:27;;;;;;;41.55;21.90;;;6.70;99.90;;;;;;5034907;28;20036;-44
2022/11/30 03:53:53;;;;;;;43.70;23.58;;;7.00;99.90;;;;;;5052717;28;20088;-45
2022/11/30 03:56:19;;;;;;;42.58;22.58;;;7.00;99.90;;;;;;5048272;28;20033;-43
2022/11/30 03:58:45;;;;;;;42.70;22.13;;;6.90;99.90;;;;;;5032649;28;20526;-44
2022/11/30 04:01:13;;;;;;;43.25;22.10;;;6.80;99.90;;;;;;5032729;28;20037;-44
2022/11/30 04:03:39;;;;;;;46.00;24.63;;;6.80;99.90;;;;;;5032560;28;20049;-43
2022/11/30 04:06:06;;;;;;;47.15;24.90;;;7.00;99.90;;;;;;5014196;28;20068;-45
2022/11/30 04:08:33;;;;;;;43.80;23.23;;;7.10;99.90;;;;;;5032598;28;20553;-44
2022/11/30 04:11:00;;;;;;;46.13;23.75;;;6.80;99.90;;;;;;5032583;28;20044;-44
2022/11/30 04:13:27;;;;;;;39.88;22.02;;;7.00;99.90;;;;;;5032454;28;20094;-46
2022/11/30 04:15:54;;;;;;;43.30;25.00;;;6.90;99.90;;;;;;5032447;28;20046;-44
2022/11/30 04:18:21;;;;;;;46.03;26.02;;;6.70;99.90;;;;;;5014502;28;20044;-44
2022/11/30 04:20:49;;;;;;;45.10;25.77;;;6.90;99.90;;;;;;5032083;28;20093;-45
2022/11/30 04:23:15;;;;;;;43.92;25.95;;;6.80;99.90;;;;;;5032388;28;20045;-45
2022/11/30 04:25:41;;;;;;;42.17;24.58;;;7.10;99.90;;;;;;5032282;28;20393;-45
2022/11/30 04:28:07;;;;;;;43.72;22.90;;;7.10;99.90;;;;;;5032213;28;20494;-45
2022/11/30 04:30:34;;;;;;;43.03;23.85;;;6.80;99.90;;;;;;5032012;28;20039;-47
2022/11/30 04:33:00;;;;;;;43.30;23.60;;;7.10;99.90;;;;;;5032111;28;20375;-46
2022/11/30 04:35:26;;;;;;;45.15;24.13;;;6.80;99.90;;;;;;5032210;28;20042;-43
2022/11/30 04:37:52;;;;;;;43.30;24.73;;;7.10;99.90;;;;;;5032030;28;20474;-44
2022/11/30 04:40:18;;;;;;;43.85;25.15;;;7.10;99.90;;;;;;5031989;28;20040;-43
2022/11/30 04:42:43;;;;;;;39.88;24.42;;;7.10;99.90;;;;;;5032051;28;20088;-44
2022/11/30 04:45:10;;;;;;;42.97;26.17;;;6.90;99.90;;;;;;5031795;28;20041;-43
2022/11/30 04:47:35;;;;;;;41.38;24.35;;;7.20;99.90;;;;;;5031813;28;20124;-43
2022/11/30 04:50:02;;;;;;;43.45;25.08;;;7.00;99.90;;;;;;5031735;28;20157;-44
2022/11/30 04:52:27;;;;;;;44.05;25.25;;;7.10;99.90;;;;;;5031865;28;20237;-44
2022/11/30 04:54:54;;;;;;;43.42;25.52;;;6.90;99.90;;;;;;5014174;28;20041;-44
2022/11/30 04:57:20;;;;;;;42.00;24.00;;;6.90;99.90;;;;;;5044478;28;20090;-44
2022/11/30 04:59:45;;;;;;;43.20;24.70;;;7.00;99.90;;;;;;5051665;28;20127;-43
2022/11/30 05:02:11;;;;;;;40.50;24.48;;;7.20;99.90;;;;;;5033821;28;20157;-44
2022/11/30 05:04:37;;;;;;;44.45;25.60;;;7.10;99.90;;;;;;5051788;28;20401;-46
2022/11/30 05:07:02;;;;;;;42.15;24.90;;;7.20;99.90;;;;;;5051628;28;20385;-45
2022/11/30 05:09:28;;;;;;;43.80;24.40;;;7.10;99.90;;;;;;5051484;28;20041;-44
2022/11/30 05:11:53;;;;;;;41.42;24.50;;;7.00;99.90;;;;;;5051589;28;20040;-47
2022/11/30 05:14:19;;;;;;;44.63;25.73;;;7.20;99.90;;;;;;5051489;28;20041;-47
2022/11/30 05:16:48;;;;;;;45.53;25.88;;;7.20;99.90;;;;;;5051396;28;20033;-44
2022/11/30 05:19:14;;;;;;;44.00;23.90;;;7.00;99.90;;;;;;5055076;28;20573;-46
2022/11/30 05:21:40;;;;;;;46.08;24.88;;;6.90;99.90;;;;;;5055873;28;20128;-46
2022/11/30 05:24:06;;;;;;;47.15;25.30;;;7.10;99.90;;;;;;5055758;28;20120;-44
2022/11/30 05:26:33;;;;;;;49.15;25.13;;;7.10;99.90;;;;;;5055549;28;20495;-44
2022/11/30 05:28:59;;;;;;;51.55;26.88;;;7.20;99.90;;;;;;5037806;28;20471;-43
2022/11/30 05:31:24;;;;;;;51.60;26.73;;;7.30;99.90;;;;;;5055346;28;20079;-44
2022/11/30 05:33:51;;;;;;;48.70;24.90;;;7.10;99.90;;;;;;5055820;28;20044;-43
2022/11/30 05:36:17;;;;;;;50.72;25.67;;;6.90;99.90;;;;;;5055265;28;20440;-45
2022/11/30 05:38:44;;;;;;;57.03;27.92;;;7.20;99.90;;;;;;5055325;28;20194;-43
2022/11/30 05:41:10;;;;;;;58.63;26.40;;;7.20;99.90;;;;;;5055256;28;20040;-43
2022/11/30 05:43:35;;;;;;;54.10;26.45;;;7.00;99.90;;;;;;5055187;28;20161;-43
2022/11/30 05:46:03;;;;;;;50.35;25.00;;;6.90;99.90;;;;;;5037120;28;20080;-43
2022/11/30 05:48:29;;;;;;;54.65;26.50;;;7.00;99.90;;;;;;5055371;28;20036;-47
2022/11/30 05:50:55;;;;;;;52.10;25.92;;;7.00;99.90;;;;;;5054985;28;20078;-45
2022/11/30 05:53:21;;;;;;;58.28;27.52;;;7.20;99.90;;;;;;5055131;28;20037;-45
2022/11/30 05:55:46;;;;;;;54.95;26.08;;;7.20;99.90;;;;;;5054803;28;20388;-46
2022/11/30 05:58:12;;;;;;;50.42;25.58;;;7.00;99.90;;;;;;5034952;28;20139;-44
2022/11/30 06:00:38;;;;;;;53.53;26.30;;;7.10;99.90;;;;;;5017100;28;20049;-43
2022/11/30 06:03:03;;;;;;;66.60;29.92;;;7.20;99.90;;;;;;5034947;28;20129;-44
2022/11/30 06:05:29;;;;;;;59.15;30.17;;;7.00;99.90;;;;;;5034975;28;20053;-44
2022/11/30 06:07:57;;;;;;;59.50;32.72;;;7.00;99.90;;;;;;5035005;28;20052;-44
2022/11/30 06:10:24;;;;;;;59.00;33.40;;;6.90;99.90;;;;;;5034706;28;20041;-44
2022/11/30 06:12:50;;;;;;;57.75;31.15;;;7.20;99.90;;;;;;5017175;28;20050;-45
2022/11/30 06:15:16;;;;;;;63.70;31.40;;;7.10;99.90;;;;;;5034886;28;20081;-45
2022/11/30 06:17:42;;;;;;;54.53;25.45;;;7.00;99.90;;;;;;5034823;28;20036;-43
2022/11/30 06:20:08;;;;;;;55.90;27.83;;;7.20;99.90;;;;;;5034374;28;20500;-43
2022/11/30 06:22:34;;;;;;;55.55;27.85;;;7.00;99.90;;;;;;5034480;28;20056;-44
2022/11/30 06:24:59;;;;;;;51.33;27.35;;;7.20;99.90;;;;;;5034514;28;20401;-45
2022/11/30 06:27:30;;;;;;;59.13;29.83;;;7.00;99.90;;;;;;5034238;28;21305;-46
2022/11/30 06:29:55;;;;;;;52.13;25.80;;;6.80;99.90;;;;;;5033556;28;20518;-47
2022/11/30 06:32:21;;;;;;;49.63;24.00;;;7.00;99.90;;;;;;5034248;28;20073;-45
2022/11/30 06:34:47;;;;;;;46.95;23.55;;;6.80;99.90;;;;;;5034470;28;20104;-45
2022/11/30 06:37:12;;;;;;;56.28;26.63;;;7.10;99.90;;;;;;5034211;28;20041;-45
2022/11/30 06:39:38;;;;;;;56.00;26.15;;;7.10;99.90;;;;;;5034338;28;20037;-45
2022/11/30 06:42:04;;;;;;;51.83;26.25;;;7.10;99.90;;;;;;5033983;28;20052;-46
2022/11/30 06:44:29;;;;;;;54.80;27.88;;;6.90;99.90;;;;;;5034426;28;20112;-46
2022/11/30 06:46:55;;;;;;;55.90;27.92;;;7.10;99.90;;;;;;5034275;28;20402;-45
2022/11/30 06:49:21;;;;;;;49.70;26.77;;;7.10;99.90;;;;;;5034337;28;20056;-45
2022/11/30 06:51:46;;;;;;;54.50;27.52;;;7.10;99.90;;;;;;5034044;28;20477;-45
2022/11/30 06:54:12;;;;;;;49.50;26.95;;;7.10;99.90;;;;;;5034672;28;20045;-47
2022/11/30 06:56:38;;;;;;;49.00;24.85;;;7.00;99.90;;;;;;5023131;28;20048;-49
2022/11/30 06:59:03;;;;;;;49.65;25.70;;;6.90;99.90;;;;;;5053790;28;20128;-44
2022/11/30 07:01:29;;;;;;;47.85;24.02;;;6.90;99.90;;;;;;5053689;28;20044;-45
2022/11/30 07:03:55;;;;;;;51.10;24.45;;;6.90;99.90;;;;;;5053984;28;20511;-43
2022/11/30 07:06:20;;;;;;;48.38;23.52;;;6.90;99.90;;;;;;5053660;28;20090;-45
2022/11/30 07:08:46;;;;;;;49.40;24.02;;;7.20;99.90;;;;;;5054201;28;20099;-44
2022/11/30 07:11:12;;;;;;;42.10;22.33;;;7.10;99.90;;;;;;5035798;28;20428;-44
2022/11/30 07:13:37;;;;;;;46.53;23.05;;;7.20;99.90;;;;;;5053452;28;20542;-43
2022/11/30 07:16:09;;;;;;;44.20;21.35;;;6.90;99.90;;;;;;5035853;28;20045;-48
2022/11/30 07:18:35;;;;;;;42.60;22.10;;;7.10;99.90;;;;;;5053692;28;20124;-45
2022/11/30 07:21:02;;;;;;;47.63;22.83;;;6.90;99.90;;;;;;5053313;28;20143;-45
2022/11/30 07:26:13;;;;;;;39.67;21.23;;;7.10;99.90;;;;;;5053624;28;20106;-44
2022/11/30 07:28:41;;;;;;;43.42;21.55;;;6.90;99.90;;;;;;5053650;28;20037;-44
2022/11/30 07:31:18;;;;;;;38.78;20.70;;;6.90;99.90;;;;;;5053564;28;20405;-46
2022/11/30 07:33:44;;;;;;;47.95;22.00;;;7.10;99.90;;;;;;5053357;28;20037;-44
2022/11/30 07:36:10;;;;;;;39.58;20.05;;;6.80;99.90;;;;;;5053317;28;20041;-43
2022/11/30 07:38:37;;;;;;;41.47;21.45;;;7.10;99.90;;;;;;5053455;28;20045;-45
2022/11/30 07:41:03;;;;;;;43.40;21.70;;;6.80;99.90;;;;;;5034330;28;20060;-45
2022/11/30 07:43:29;;;;;;;43.80;20.45;;;6.80;99.90;;;;;;5035260;28;20124;-43
2022/11/30 07:45:55;;;;;;;41.38;20.42;;;6.90;99.90;;;;;;5053174;28;20175;-44
2022/11/30 07:48:21;;;;;;;39.15;20.55;;;6.80;99.90;;;;;;5053121;28;20412;-44
2022/11/30 07:50:47;;;;;;;43.95;21.92;;;6.90;99.90;;;;;;5052919;28;20045;-44
2022/11/30 07:53:14;;;;;;;41.65;20.73;;;6.80;99.90;;;;;;5035086;28;20481;-44
2022/11/30 07:55:41;;;;;;;42.75;20.23;;;7.10;99.90;;;;;;5052825;28;20485;-44
2022/11/30 07:58:08;;;;;;;38.25;20.15;;;6.90;99.90;;;;;;5033341;28;20042;-45
2022/11/30 08:00:35;;;;;;;43.80;20.52;;;6.80;99.90;;;;;;5033328;28;20434;-44
2022/11/30 08:03:01;;;;;;;40.40;19.65;;;6.90;99.90;;;;;;5032864;28;20402;-44
2022/11/30 08:05:27;;;;;;;40.10;19.83;;;7.00;99.90;;;;;;5032712;28;20053;-46
2022/11/30 08:07:53;;;;;;;38.75;20.08;;;6.80;99.90;;;;;;5032899;28;20041;-44
2022/11/30 08:10:23;;;;;;;37.80;18.48;;;7.10;99.90;;;;;;5032833;28;20041;-44
2022/11/30 08:12:49;;;;;;;36.35;19.33;;;6.80;99.90;;;;;;5032529;28;20497;-45
2022/11/30 08:15:15;;;;;;;35.03;18.85;;;6.90;99.90;;;;;;5032685;28;20033;-44
2022/11/30 08:17:41;;;;;;;36.75;19.55;;;6.90;99.90;;;;;;5032473;28;20044;-45
2022/11/30 08:20:09;;;;;;;36.90;19.33;;;6.80;99.90;;;;;;5032065;28;20053;-44
2022/11/30 08:22:35;;;;;;;37.78;19.30;;;6.90;99.90;;;;;;5032673;28;20049;-45
2022/11/30 08:25:01;;;;;;;34.20;17.67;;;6.80;99.90;;;;;;5032654;28;20405;-43
2022/11/30 08:27:26;;;;;;;34.85;18.40;;;6.80;99.90;;;;;;5032405;28;20045;-44
2022/11/30 08:29:52;;;;;;;35.95;18.80;;;6.80;99.90;;;;;;5032367;28;20053;-44
2022/11/30 08:32:18;;;;;;;36.15;17.65;;;6.80;99.90;;;;;;5014650;28;20108;-44
2022/11/30 08:34:43;;;;;;;33.33;15.57;;;6.90;99.90;;;;;;5014588;28;20038;-44
2022/11/30 08:37:09;;;;;;;26.20;12.60;;;6.90;99.90;;;;;;5032593;28;20445;-45
2022/11/30 08:39:35;;;;;;;24.98;13.50;;;6.90;99.90;;;;;;5032319;28;20428;-44
2022/11/30 08:42:01;;;;;;;28.38;13.45;;;7.00;99.90;;;;;;5032096;28;20120;-44
2022/11/30 08:44:28;;;;;;;25.77;13.18;;;7.00;99.90;;;;;;5032109;28;20045;-48
2022/11/30 08:46:54;;;;;;;25.55;11.48;;;6.90;99.90;;;;;;5032138;28;20080;-45
2022/11/30 08:49:22;;;;;;;22.77;11.65;;;6.90;99.90;;;;;;5032274;28;20514;-45
2022/11/30 08:51:49;;;;;;;20.95;10.98;;;6.80;99.90;;;;;;5014798;28;20106;-46
2022/11/30 08:54:14;;;;;;;22.05;11.20;;;7.10;99.90;;;;;;5031737;28;20080;-45
2022/11/30 08:56:40;;;;;;;22.42;10.82;;;7.00;99.90;;;;;;5039654;28;20069;-45
2022/11/30 08:59:06;;;;;;;22.52;11.80;;;6.90;99.90;;;;;;5034227;28;20155;-44
2022/11/30 09:01:31;;;;;;;22.42;10.85;;;7.00;99.90;;;;;;5051954;28;20044;-45
2022/11/30 09:03:57;;;;;;;25.30;10.50;;;6.80;99.90;;;;;;5051685;28;20399;-45
2022/11/30 09:06:28;;;;;;;21.60;11.02;;;6.90;99.90;;;;;;5051935;28;20076;-46
2022/11/30 09:08:56;;;;;;;21.98;10.32;;;6.90;99.90;;;;;;5051796;28;20379;-46
2022/11/30 09:11:28;;;;;;;21.50;10.85;;;7.00;99.90;;;;;;5051860;28;20087;-45
2022/11/30 09:13:56;;;;;;;22.30;11.00;;;7.00;99.90;;;;;;5051568;28;20041;-45
2022/11/30 09:16:24;;;;;;;23.90;11.65;;;7.10;99.90;;;;;;5051636;28;20120;-48
2022/11/30 09:18:50;;;;;;;21.33;11.98;;;6.90;99.90;;;;;;5051869;28;20043;-48
2022/11/30 09:21:19;;;;;;;26.50;12.05;;;6.90;99.90;;;;;;5051500;28;20218;-44
2022/11/30 09:23:46;;;;;;;26.65;12.43;;;7.10;99.90;;;;;;5051492;28;20071;-44
2022/11/30 09:26:13;;;;;;;23.10;12.07;;;7.00;99.90;;;;;;5051708;28;20040;-44
2022/11/30 09:28:39;;;;;;;25.65;13.02;;;7.10;99.90;;;;;;5051800;28;20480;-45
2022/11/30 09:31:09;;;;;;;23.92;11.68;;;7.10;99.90;;;;;;5051879;28;20157;-45
2022/11/30 09:33:35;;;;;;;27.77;13.10;;;7.10;99.90;;;;;;5051652;28;20037;-44
2022/11/30 09:36:04;;;;;;;24.38;13.75;;;7.00;99.90;;;;;;5051832;28;20052;-45
2022/11/30 09:38:29;;;;;;;28.23;13.05;;;7.10;99.90;;;;;;5051369;28;20068;-45
2022/11/30 09:40:57;;;;;;;27.52;13.52;;;7.10;99.90;;;;;;5051448;28;20103;-45
2022/11/30 09:44:01;;;;;;;30.45;13.95;;;7.00;99.90;;;;;;5051305;28;20049;-52
2022/11/30 09:46:38;;;;;;;29.83;13.40;;;7.20;99.90;;;;;;5010110;28;20049;-54
2022/11/30 09:49:41;;;;;;;33.00;14.65;;;7.10;99.90;;;;;;5051168;28;20422;-52
2022/11/30 09:52:18;;;;;;;28.15;14.05;;;7.30;99.90;;;;;;5006945;28;20102;-54
2022/11/30 09:54:46;;;;;;;29.33;14.40;;;7.10;99.90;;;;;;5051409;28;20045;-54
2022/11/30 09:57:17;;;;;;;28.77;13.30;;;7.20;99.90;;;;;;5039243;28;20108;-51
2022/11/30 10:00:15;;;;;;;26.20;13.98;;;7.30;99.90;;;;;;5031232;28;20044;-51
2022/11/30 10:02:41;;;;;;;27.40;12.80;;;7.30;99.90;;;;;;5008606;28;20544;-53
2022/11/30 10:05:18;;;;;;;31.33;15.38;;;7.20;99.90;;;;;;5032837;28;20047;-52
2022/11/30 10:07:58;;;;;;;28.08;14.02;;;7.30;99.90;;;;;;5034988;28;20478;-54
2022/11/30 10:11:09;;;;;;;30.75;14.48;;;7.20;99.90;;;;;;5034493;28;20041;-53
2022/11/30 10:13:58;;;;;;;29.20;13.75;;;7.30;99.90;;;;;;5034744;28;20042;-55
2022/11/30 10:16:43;;;;;;;28.65;12.90;;;7.20;99.90;;;;;;5034779;28;20045;-55
2022/11/30 10:19:19;;;;;;;25.13;12.75;;;7.30;99.90;;;;;;5034888;28;20045;-53
2022/11/30 10:22:00;;;;;;;24.95;12.75;;;7.30;99.90;;;;;;5034756;28;20060;-52
2022/11/30 10:24:58;;;;;;;27.38;12.90;;;7.30;99.90;;;;;;5017028;28;20053;-53
2022/11/30 10:27:33;;;;;;;27.73;14.32;;;7.30;99.90;;;;;;5034845;28;20037;-55
2022/11/30 10:30:00;;;;;;;29.05;14.18;;;7.30;99.90;;;;;;5034786;28;20044;-52
2022/11/30 10:32:36;;;;;;;27.65;14.27;;;7.30;99.90;;;;;;5034742;28;20051;-52
2022/11/30 10:35:31;;;;;;;29.95;13.48;;;7.40;99.90;;;;;;5034577;28;20049;-53
2022/11/30 10:37:58;;;;;;;27.55;13.07;;;7.40;99.90;;;;;;5034855;28;20124;-52
2022/11/30 10:40:36;;;;;;;28.23;14.23;;;7.30;99.90;;;;;;5034518;28;20054;-53
2022/11/30 10:43:16;;;;;;;28.15;14.15;;;7.40;99.90;;;;;;5034503;28;20099;-52
2022/11/30 10:45:49;;;;;;;32.05;14.50;;;7.30;99.90;;;;;;5034232;28;20494;-51
2022/11/30 10:48:24;;;;;;;27.92;12.95;;;7.40;99.90;;;;;;5034527;28;20064;-52
2022/11/30 10:50:50;;;;;;;28.17;15.13;;;7.40;99.90;;;;;;5034377;28;20041;-52
2022/11/30 10:53:16;;;;;;;28.95;14.10;;;7.50;99.90;;;;;;5016737;28;20442;-52
2022/11/30 10:55:50;;;;;;;28.20;14.70;;;7.40;99.90;;;;;;5034195;28;20033;-52
2022/11/30 10:58:30;;;;;;;30.95;15.75;;;7.40;99.90;;;;;;5034211;28;20044;-52
2022/11/30 11:01:06;;;;;;;28.83;16.15;;;7.40;99.90;;;;;;5034193;28;20119;-52
2022/11/30 11:03:33;;;;;;;30.80;14.88;;;7.40;99.90;;;;;;5034121;28;20139;-54
2022/11/30 11:06:11;;;;;;;30.65;15.45;;;7.40;99.90;;;;;;5032976;28;20488;-55
2022/11/30 11:08:38;;;;;;;29.85;15.13;;;7.40;99.90;;;;;;5016106;28;20575;-54
2022/11/30 11:11:24;;;;;;;28.15;14.77;;;7.40;99.90;;;;;;5033976;28;20045;-52
2022/11/30 11:13:50;;;;;;;31.33;15.68;;;7.40;99.90;;;;;;5033886;28;20043;-51
2022/11/30 11:16:16;;;;;;;29.75;16.17;;;7.40;99.90;;;;;;5033473;28;20045;-52
2022/11/30 11:18:53;;;;;;;32.67;16.92;;;7.30;99.90;;;;;;5033724;28;20497;-54
2022/11/30 11:21:21;;;;;;;32.67;15.45;;;7.40;99.90;;;;;;5033763;28;20056;-53
2022/11/30 11:23:50;;;;;;;35.22;18.33;;;7.50;99.90;;;;;;5033892;28;20117;-44
2022/11/30 11:26:23;;;;;;;31.92;16.30;;;7.50;99.90;;;;;;5033719;28;20394;-46
2022/11/30 11:28:51;;;;;;;30.08;16.20;;;7.50;99.90;;;;;;5033536;28;20076;-46
2022/11/30 11:31:35;;;;;;;33.33;15.90;;;7.40;99.90;;;;;;5015696;28;20087;-44
2022/11/30 11:34:03;;;;;;;28.55;15.02;;;7.40;99.90;;;;;;5033748;28;20037;-47
2022/11/30 11:36:31;;;;;;;30.50;15.75;;;7.40;99.90;;;;;;5033431;28;20045;-46
2022/11/30 11:38:59;;;;;;;31.67;16.52;;;7.40;99.90;;;;;;5033468;28;20033;-47
2022/11/30 11:41:33;;;;;;;32.05;16.52;;;7.50;99.90;;;;;;5033292;28;20033;-45
2022/11/30 11:44:08;;;;;;;29.55;15.88;;;7.50;99.90;;;;;;5033305;28;20521;-43
2022/11/30 11:46:37;;;;;;;30.20;15.30;;;7.60;99.90;;;;;;5033381;28;20033;-44
2022/11/30 11:49:21;;;;;;;33.90;16.15;;;7.60;99.90;;;;;;5033190;28;20120;-45
2022/11/30 11:52:03;;;;;;;32.53;16.20;;;7.60;99.90;;;;;;5033068;28;20038;-45
2022/11/30 11:54:52;;;;;;;32.30;14.93;;;7.60;99.90;;;;;;5032984;28;20042;-44
2022/11/30 11:57:23;;;;;;;32.20;16.33;;;7.50;99.90;;;;;;5045679;28;20040;-44
2022/11/30 12:00:14;;;;;;;47.90;28.15;;;7.50;99.90;;;;;;5052875;28;20482;-45
2022/11/30 12:03:03;;;;;;;45.33;25.58;;;7.50;99.90;;;;;;5052781;28;20052;-44
2022/11/30 12:05:50;;;;;;;39.80;19.77;;;7.50;99.90;;;;;;5052851;28;20068;-44
2022/11/30 12:08:36;;;;;;;34.58;17.45;;;7.50;99.90;;;;;;5052845;28;20467;-45
2022/11/30 12:11:28;;;;;;;31.92;16.55;;;7.50;99.90;;;;;;5052477;28;20044;-44
2022/11/30 12:13:54;;;;;;;33.13;17.00;;;7.50;99.90;;;;;;5052541;28;20045;-47
2022/11/30 12:17:04;;;;;;;33.17;16.35;;;7.50;99.90;;;;;;5052646;28;20037;-44
2022/11/30 12:20:04;;;;;;;29.02;15.25;;;7.50;99.90;;;;;;4971400;28;20046;-48
2022/11/30 12:22:48;;;;;;;32.35;16.42;;;7.50;99.90;;;;;;4955253;28;20412;-44
2022/11/30 12:25:33;;;;;;;30.48;15.10;;;7.40;99.90;;;;;;5041508;28;20077;-45
2022/11/30 12:28:27;;;;;;;31.85;16.05;;;7.40;99.90;;;;;;5051728;28;20048;-47
2022/11/30 12:31:13;;;;;;;32.60;15.98;;;7.50;99.90;;;;;;5052478;28;20452;-44
2022/11/30 12:34:16;;;;;;;33.47;17.20;;;7.50;99.90;;;;;;5052320;28;20099;-48
2022/11/30 12:36:51;;;;;;;29.10;14.25;;;7.50;99.90;;;;;;5052342;28;20073;-45
2022/11/30 12:39:48;;;;;;;30.55;14.27;;;7.50;99.90;;;;;;5034836;28;20044;-44
2022/11/30 12:42:21;;;;;;;31.10;15.73;;;7.50;99.90;;;;;;5052056;28;20116;-44
2022/11/30 12:45:16;;;;;;;30.58;16.25;;;7.50;99.90;;;;;;5052372;28;20098;-45
2022/11/30 12:48:00;;;;;;;28.13;15.23;;;7.50;99.90;;;;;;5052049;28;20049;-44
2022/11/30 12:51:02;;;;;;;31.40;16.80;;;7.40;99.90;;;;;;5051963;28;20045;-44
2022/11/30 12:54:16;;;;;;;31.15;15.25;;;7.40;99.90;;;;;;5034294;28;20086;-43
2022/11/30 12:56:48;;;;;;;29.77;15.13;;;7.60;99.90;;;;;;5008976;28;20041;-44